Time;durP1;ratioP1;P1;durP2;ratioP2;P2;SDS_P1;SDS_P2;PMS_P1;PMS_P2;Temp;Humidity;BMP_temperature;BMP_pressure;BME280_temperature;BME280_humidity;BME280_pressure;Samples;Min_cycle;Max_cycle;Signal;HPM_P1;HPM_P2
2022/07/29 00:01:36;;;;;;;3.72;2.12;;;;;;;17.88;84.14;98410.45;1780152;80;20947;-67
2022/07/29 00:04:03;;;;;;;5.10;2.22;;;;;;;17.84;84.34;98409.52;1780236;80;21222;-69
2022/07/29 00:06:30;;;;;;;4.92;2.55;;;;;;;17.81;84.81;98415.59;1780084;80;20903;-63
2022/07/29 00:08:56;;;;;;;5.40;2.75;;;;;;;17.76;85.36;98409.24;1780145;80;20939;-63
2022/07/29 00:11:23;;;;;;;5.37;2.62;;;;;;;17.70;85.79;98414.63;1780224;80;20919;-65
2022/07/29 00:13:49;;;;;;;3.33;2.47;;;;;;;17.67;86.08;98415.82;1780159;80;20872;-67
2022/07/29 00:16:16;;;;;;;4.40;2.15;;;;;;;17.61;86.30;98412.52;1780190;80;21099;-67
2022/07/29 00:18:43;;;;;;;3.95;2.15;;;;;;;17.56;86.54;98412.70;1780274;80;21391;-68
2022/07/29 00:21:09;;;;;;;4.45;2.40;;;;;;;17.49;86.85;98409.67;1780217;80;20891;-67
2022/07/29 00:23:36;;;;;;;6.65;2.65;;;;;;;17.41;87.16;98407.77;1780218;80;20983;-65
2022/07/29 00:26:02;;;;;;;3.98;2.20;;;;;;;17.37;87.35;98402.78;1780456;80;21351;-66
2022/07/29 00:28:29;;;;;;;3.67;2.37;;;;;;;17.31;87.69;98404.06;1780168;77;21095;-66
2022/07/29 00:30:55;;;;;;;4.53;2.62;;;;;;;17.25;88.03;98404.02;1780045;80;20986;-66
2022/07/29 00:33:23;;;;;;;3.52;2.10;;;;;;;17.21;88.23;98401.72;1780215;80;20856;-68
2022/07/29 00:35:49;;;;;;;5.78;2.20;;;;;;;17.18;88.38;98392.89;1780289;80;21383;-65
2022/07/29 00:38:18;;;;;;;6.75;2.27;;;;;;;17.16;88.47;98390.27;1780409;80;21474;-67
2022/07/29 00:40:45;;;;;;;5.58;2.35;;;;;;;17.12;88.51;98388.78;1780093;80;21272;-62
2022/07/29 00:43:14;;;;;;;3.55;2.20;;;;;;;17.08;88.57;98395.93;1780151;80;20868;-65
2022/07/29 00:45:42;;;;;;;4.60;2.50;;;;;;;17.06;88.59;98400.87;1780185;80;20868;-65
2022/07/29 00:48:09;;;;;;;2.50;2.15;;;;;;;17.01;88.48;98395.08;1780090;80;20908;-63
2022/07/29 00:50:37;;;;;;;6.35;2.45;;;;;;;16.99;88.40;98401.92;1780112;80;20999;-65
2022/07/29 00:53:06;;;;;;;4.05;2.45;;;;;;;16.95;88.46;98406.41;1780083;80;21969;-64
2022/07/29 00:55:34;;;;;;;4.72;2.25;;;;;;;16.93;88.47;98401.88;1780112;80;20864;-65
2022/07/29 00:58:00;;;;;;;4.53;2.25;;;;;;;16.87;88.67;98408.55;1780286;80;21272;-64
2022/07/29 01:00:28;;;;;;;3.02;2.40;;;;;;;16.86;88.94;98404.27;1780145;80;20908;-65
2022/07/29 01:02:54;;;;;;;4.40;2.40;;;;;;;16.87;89.04;98399.08;1780114;80;20966;-67
2022/07/29 01:05:24;;;;;;;3.85;2.10;;;;;;;16.89;89.09;98400.91;1780092;80;21101;-66
2022/07/29 01:07:53;;;;;;;6.55;2.30;;;;;;;16.86;89.18;98397.51;1780048;80;20914;-67
2022/07/29 01:10:21;;;;;;;7.37;2.60;;;;;;;16.84;89.09;98391.05;1780083;80;20868;-67
2022/07/29 01:12:50;;;;;;;4.37;2.25;;;;;;;16.83;89.26;98392.17;1780144;80;20959;-64
2022/07/29 01:15:17;;;;;;;4.08;2.30;;;;;;;16.86;89.41;98388.04;1780159;80;20912;-64
2022/07/29 01:18:07;;;;;;;5.58;2.42;;;;;;;16.87;89.31;98396.38;1780184;80;21217;-67
2022/07/29 01:21:11;;;;;;;3.60;2.10;;;;;;;16.87;89.32;98393.67;1780162;80;20959;-64
2022/07/29 01:24:11;;;;;;;4.28;2.22;;;;;;;16.89;89.47;98388.73;1774972;80;20932;-63
2022/07/29 01:27:06;;;;;;;3.42;2.20;;;;;;;16.95;89.54;98395.58;1780066;80;20884;-67
2022/07/29 01:29:44;;;;;;;5.47;2.40;;;;;;;16.95;89.26;98390.97;1826633;78;21439;-62
2022/07/29 01:32:20;;;;;;;5.85;2.30;;;;;;;16.97;89.25;98384.67;1830131;78;21993;-66
2022/07/29 01:35:06;;;;;;;3.50;2.00;;;;;;;17.01;89.10;98387.52;1830061;78;21501;-62
2022/07/29 01:38:03;;;;;;;;;;;;;;;17.03;88.93;98389.34;1833058;78;20900;-62
2022/07/29 01:40:41;;;;;;;3.42;2.30;;;;;;;17.02;88.96;98387.21;1829915;78;20758;-63
2022/07/29 01:43:21;;;;;;;5.15;2.08;;;;;;;17.03;88.75;98391.48;1829956;78;20928;-68
2022/07/29 01:46:00;;;;;;;5.35;2.30;;;;;;;17.07;88.58;98391.66;1829904;78;21229;-64
2022/07/29 01:48:53;;;;;;;4.25;2.30;;;;;;;17.06;88.42;98391.41;1829845;78;20904;-66
2022/07/29 01:51:31;;;;;;;3.30;2.10;;;;;;;17.05;88.42;98388.48;1829955;77;20908;-68
2022/07/29 01:54:20;;;;;;;3.15;2.00;;;;;;;17.06;88.47;98396.81;1828455;78;20916;-67
2022/07/29 01:56:49;;;;;;;4.28;2.42;;;;;;;17.07;88.46;98395.72;1829895;78;21032;-66
2022/07/29 01:59:16;;;;;;;2.67;1.98;;;;;;;17.09;88.61;98394.83;1830326;78;21751;-69
2022/07/29 02:01:43;;;;;;;2.30;1.95;;;;;;;17.12;88.55;98398.25;1829850;78;20892;-64
2022/07/29 02:04:10;;;;;;;3.00;2.20;;;;;;;17.12;88.37;98401.52;1830010;78;20856;-63
2022/07/29 02:06:38;;;;;;;6.80;2.30;;;;;;;17.14;88.46;98406.84;1829844;78;20909;-65
2022/07/29 02:09:06;;;;;;;3.62;2.40;;;;;;;17.18;88.25;98405.62;1829925;78;20947;-66
2022/07/29 02:11:34;;;;;;;5.67;2.42;;;;;;;17.17;87.85;98402.11;1829899;78;21215;-66
2022/07/29 02:14:00;;;;;;;4.25;2.60;;;;;;;17.16;87.79;98396.48;1829806;78;20866;-68
2022/07/29 02:16:29;;;;;;;5.75;3.05;;;;;;;17.16;87.32;98394.33;1829984;78;20948;-63
2022/07/29 02:18:56;;;;;;;8.95;2.80;;;;;;;17.15;86.98;98392.72;1829975;78;20873;-63
2022/07/29 02:21:25;;;;;;;5.47;2.80;;;;;;;17.13;86.90;98399.02;1830020;78;20888;-66
2022/07/29 02:23:52;;;;;;;6.50;3.00;;;;;;;17.13;86.75;98397.67;1829884;78;21104;-63
2022/07/29 02:26:21;;;;;;;5.25;3.05;;;;;;;17.14;86.37;98391.15;1829762;78;20951;-66
2022/07/29 02:28:50;;;;;;;9.35;3.35;;;;;;;17.13;86.10;98387.64;1836322;77;20959;-68
2022/07/29 02:31:18;;;;;;;8.00;3.42;;;;;;;17.14;85.81;98386.54;1843633;77;21392;-66
2022/07/29 02:33:45;;;;;;;4.83;3.02;;;;;;;17.12;85.59;98386.08;1801757;77;20963;-67
2022/07/29 02:36:13;;;;;;;5.60;2.70;;;;;;;17.09;85.48;98389.41;1843749;77;21199;-64
2022/07/29 02:38:51;;;;;;;5.00;2.55;;;;;;;17.08;85.23;98383.20;1843709;77;20857;-64
2022/07/29 02:41:41;;;;;;;4.55;2.80;;;;;;;17.09;85.02;98386.70;1790860;77;21388;-63
2022/07/29 02:44:15;;;;;;;5.92;2.50;;;;;;;17.11;84.90;98387.17;1843665;77;20947;-67
2022/07/29 02:46:54;;;;;;;4.83;2.55;;;;;;;17.11;84.53;98383.12;1843334;77;20834;-68
2022/07/29 02:49:38;;;;;;;9.38;3.15;;;;;;;17.12;84.45;98383.36;1843911;77;22127;-66
2022/07/29 02:52:25;;;;;;;7.78;2.92;;;;;;;17.10;84.72;98375.55;1843725;77;20935;-63
2022/07/29 02:54:56;;;;;;;5.60;2.58;;;;;;;17.12;85.11;98382.56;1843658;77;20928;-64
2022/07/29 02:57:30;;;;;;;5.75;2.85;;;;;;;17.06;85.36;98377.32;1843592;77;21418;-66
2022/07/29 02:59:58;;;;;;;8.60;3.20;;;;;;;17.03;85.85;98373.09;1844459;77;20880;-64
2022/07/29 03:02:27;;;;;;;4.87;3.10;;;;;;;16.98;86.20;98376.00;1843922;77;21490;-67
2022/07/29 03:04:54;;;;;;;7.90;3.40;;;;;;;16.95;86.55;98376.64;1844108;77;21395;-67
2022/07/29 03:07:22;;;;;;;5.80;3.27;;;;;;;16.96;86.78;98382.27;1843893;77;20904;-68
2022/07/29 03:09:48;;;;;;;6.08;2.80;;;;;;;16.98;86.97;98385.47;1843915;77;20944;-66
2022/07/29 03:12:16;;;;;;;3.22;2.50;;;;;;;16.97;86.94;98391.98;1843895;77;20978;-63
2022/07/29 03:14:43;;;;;;;6.55;3.05;;;;;;;16.98;86.98;98388.18;1843832;77;21161;-64
2022/07/29 03:17:11;;;;;;;4.70;2.87;;;;;;;17.01;86.98;98387.52;1843783;77;21451;-67
2022/07/29 03:19:38;;;;;;;4.15;2.50;;;;;;;17.06;86.98;98390.05;1843813;77;20900;-69
2022/07/29 03:22:05;;;;;;;5.10;2.95;;;;;;;17.11;86.87;98393.94;1843785;77;20955;-67
2022/07/29 03:24:35;;;;;;;4.05;2.17;;;;;;;17.13;87.07;98391.70;1843945;77;20868;-64
2022/07/29 03:27:03;;;;;;;4.80;2.80;;;;;;;17.16;86.88;98398.39;1843645;77;21434;-63
2022/07/29 03:29:30;;;;;;;8.98;3.02;;;;;;;17.22;87.17;98393.82;1843679;77;20821;-63
2022/07/29 03:31:57;;;;;;;4.00;2.67;;;;;;;17.28;87.05;98393.09;1843922;77;20948;-64
2022/07/29 03:34:24;;;;;;;8.53;3.27;;;;;;;17.32;86.97;98388.06;1843876;77;20912;-67
2022/07/29 03:36:50;;;;;;;7.12;2.90;;;;;;;17.32;86.63;98392.67;1843906;77;20861;-68
2022/07/29 03:39:21;;;;;;;5.62;2.60;;;;;;;17.32;86.39;98394.83;1843920;77;21223;-65
2022/07/29 03:41:53;;;;;;;6.12;2.95;;;;;;;17.33;86.21;98399.14;1843735;77;20857;-67
2022/07/29 03:44:21;;;;;;;6.85;3.37;;;;;;;17.37;86.36;98404.14;1843218;77;20908;-64
2022/07/29 03:46:49;;;;;;;10.30;3.30;;;;;;;17.41;86.28;98405.06;1843783;77;20864;-65
2022/07/29 03:49:16;;;;;;;8.83;3.10;;;;;;;17.45;86.02;98408.70;1797205;77;21014;-64
2022/07/29 03:51:43;;;;;;;12.18;3.42;;;;;;;17.44;85.66;98401.72;1843811;77;21100;-62
2022/07/29 03:54:11;;;;;;;8.75;3.08;;;;;;;17.45;85.99;98402.52;1844138;77;20837;-65
2022/07/29 03:56:40;;;;;;;7.83;3.50;;;;;;;17.46;86.01;98406.24;1843984;77;21490;-67
2022/07/29 03:59:07;;;;;;;6.28;3.40;;;;;;;17.49;85.98;98407.52;1844177;77;20912;-64
2022/07/29 04:01:34;;;;;;;8.63;2.90;;;;;;;17.53;85.95;98405.21;1843921;77;21379;-67
2022/07/29 04:04:02;;;;;;;5.78;2.75;;;;;;;17.54;85.61;98401.40;1843857;77;21148;-62
2022/07/29 04:06:29;;;;;;;7.22;3.33;;;;;;;17.58;85.48;98405.03;1843706;77;20959;-63
2022/07/29 04:08:56;;;;;;;5.78;3.40;;;;;;;17.55;85.22;98398.91;1843750;77;20955;-64
2022/07/29 04:11:22;;;;;;;5.87;2.75;;;;;;;17.53;85.15;98397.09;1843819;77;20876;-66
2022/07/29 04:13:50;;;;;;;6.95;2.70;;;;;;;17.51;85.30;98395.27;1843762;77;20884;-62
2022/07/29 04:16:16;;;;;;;7.30;2.65;;;;;;;17.49;85.46;98395.33;1843858;77;21072;-64
2022/07/29 04:18:44;;;;;;;5.05;3.00;;;;;;;17.46;85.49;98395.41;1843814;77;20857;-65
2022/07/29 04:21:11;;;;;;;4.03;2.95;;;;;;;17.41;85.69;98394.78;1843871;77;20925;-64
2022/07/29 04:23:37;;;;;;;5.70;3.12;;;;;;;17.38;86.02;98396.23;1843840;77;21399;-64
2022/07/29 04:26:04;;;;;;;4.15;2.70;;;;;;;17.41;86.12;98387.47;1843789;77;20860;-63
2022/07/29 04:28:31;;;;;;;5.03;2.47;;;;;;;17.46;86.03;98388.64;1841950;77;20992;-63
2022/07/29 04:30:58;;;;;;;8.25;3.00;;;;;;;17.50;85.93;98385.52;1832260;78;20881;-67
2022/07/29 04:33:25;;;;;;;4.03;2.75;;;;;;;17.53;85.86;98386.25;1832415;78;21032;-67
2022/07/29 04:35:52;;;;;;;5.30;2.72;;;;;;;17.59;85.80;98382.23;1832271;78;20873;-65
2022/07/29 04:38:18;;;;;;;4.95;2.60;;;;;;;17.67;85.84;98382.76;1832320;78;20885;-68
2022/07/29 04:40:45;;;;;;;5.30;2.60;;;;;;;17.74;85.76;98381.69;1832394;78;21204;-66
2022/07/29 04:43:11;;;;;;;3.22;2.05;;;;;;;17.81;84.86;98383.88;1832245;78;20849;-63
2022/07/29 04:45:38;;;;;;;5.40;2.77;;;;;;;17.90;84.30;98381.13;1832418;78;20975;-65
2022/07/29 04:48:05;;;;;;;5.33;2.40;;;;;;;17.99;84.01;98378.61;1832472;78;21596;-66
2022/07/29 04:50:32;;;;;;;3.62;2.42;;;;;;;18.07;83.68;98374.23;1832328;78;20904;-67
2022/07/29 04:52:59;;;;;;;5.37;2.47;;;;;;;18.13;83.43;98371.57;1832349;78;21083;-64
2022/07/29 04:55:26;;;;;;;3.75;2.47;;;;;;;18.19;82.79;98370.23;1832179;78;21003;-64
2022/07/29 04:57:52;;;;;;;4.22;2.40;;;;;;;18.25;82.51;98368.93;1832374;78;20976;-64
2022/07/29 05:00:18;;;;;;;5.12;2.37;;;;;;;18.31;82.39;98367.59;1832549;78;21459;-66
2022/07/29 05:02:45;;;;;;;11.45;2.65;;;;;;;18.38;81.73;98370.57;1832715;78;21498;-66
2022/07/29 05:05:13;;;;;;;3.50;2.30;;;;;;;18.47;81.24;98372.67;1832701;78;20857;-68
2022/07/29 05:07:40;;;;;;;5.67;2.22;;;;;;;18.58;80.64;98376.59;1832203;78;20892;-66
2022/07/29 05:10:09;;;;;;;3.80;2.30;;;;;;;18.70;80.07;98375.25;1831788;78;21024;-62
2022/07/29 05:12:35;;;;;;;3.55;2.40;;;;;;;18.85;79.64;98377.35;1832202;78;20999;-63
2022/07/29 05:15:02;;;;;;;4.22;2.20;;;;;;;18.99;78.66;98379.77;1832247;78;20912;-64
2022/07/29 05:17:30;;;;;;;4.30;2.25;;;;;;;19.15;78.39;98375.86;1829680;78;20868;-65
2022/07/29 05:19:57;;;;;;;6.15;2.20;;;;;;;19.28;77.75;98378.81;1830526;78;20987;-62
2022/07/29 05:22:25;;;;;;;4.95;2.33;;;;;;;19.41;77.78;98381.23;1832189;78;20904;-62
2022/07/29 05:24:52;;;;;;;4.15;1.90;;;;;;;19.55;77.13;98376.81;1832184;78;20865;-64
2022/07/29 05:27:19;;;;;;;3.77;2.00;;;;;;;19.67;76.34;98383.62;1822803;78;20953;-63
2022/07/29 05:29:46;;;;;;;7.08;2.08;;;;;;;19.85;75.64;98384.19;1818934;77;21102;-63
2022/07/29 05:32:13;;;;;;;7.40;2.77;;;;;;;20.05;75.49;98384.05;1847384;77;20911;-66
2022/07/29 05:34:40;;;;;;;3.90;2.10;;;;;;;20.25;74.60;98379.64;1847500;77;21090;-62
2022/07/29 05:37:07;;;;;;;4.47;2.50;;;;;;;20.40;74.33;98386.50;1831410;77;20991;-65
2022/07/29 05:39:34;;;;;;;4.72;2.30;;;;;;;20.50;74.07;98378.42;1809671;77;20951;-66
2022/07/29 05:42:01;;;;;;;4.37;2.05;;;;;;;20.58;73.31;98379.42;1824319;77;22127;-65
2022/07/29 05:44:31;;;;;;;4.50;2.15;;;;;;;20.60;72.25;98377.14;1848319;77;20947;-63
2022/07/29 05:47:00;;;;;;;5.03;2.20;;;;;;;20.61;71.32;98376.78;1820288;77;20915;-63
2022/07/29 05:49:28;;;;;;;5.08;2.22;;;;;;;20.62;70.75;98374.86;1845073;77;20954;-64
2022/07/29 05:51:56;;;;;;;2.47;1.75;;;;;;;20.64;70.44;98372.02;1845606;77;21465;-68
2022/07/29 05:54:22;;;;;;;4.35;2.10;;;;;;;20.68;70.11;98370.17;1847599;77;21376;-68
2022/07/29 05:56:49;;;;;;;5.65;2.25;;;;;;;20.80;70.50;98372.05;1825389;77;20876;-65
2022/07/29 05:59:16;;;;;;;4.55;2.00;;;;;;;20.97;71.01;98368.45;1847800;77;21549;-67
2022/07/29 06:01:43;;;;;;;3.92;2.55;;;;;;;21.17;70.45;98373.49;1837598;77;38750;-65
2022/07/29 06:04:10;;;;;;;4.80;1.82;;;;;;;21.39;69.87;98376.16;1833429;77;21010;-63
2022/07/29 06:06:38;;;;;;;4.28;2.08;;;;;;;21.61;69.84;98368.73;1804058;77;21443;-67
2022/07/29 06:09:06;;;;;;;5.90;2.17;;;;;;;21.78;69.18;98373.27;1802798;79;21507;-65
2022/07/29 06:11:34;;;;;;;3.40;1.98;;;;;;;21.88;68.89;98372.53;1801313;78;20998;-61
2022/07/29 06:14:02;;;;;;;6.80;2.20;;;;;;;21.94;67.85;98371.89;1803641;78;21395;-69
2022/07/29 06:16:30;;;;;;;4.25;1.92;;;;;;;21.99;68.52;98373.55;1840249;77;20889;-67
2022/07/29 06:18:57;;;;;;;4.83;1.90;;;;;;;22.08;66.94;98374.94;1841712;77;21173;-66
2022/07/29 06:21:25;;;;;;;4.70;1.98;;;;;;;22.19;66.14;98371.06;1840678;77;21435;-64
2022/07/29 06:23:51;;;;;;;5.53;2.10;;;;;;;22.26;65.91;98386.22;1835081;77;20940;-62
2022/07/29 06:26:19;;;;;;;4.70;2.30;;;;;;;22.27;65.99;98389.19;1827316;77;20912;-63
2022/07/29 06:28:45;;;;;;;3.52;2.00;;;;;;;22.31;65.97;98388.11;1846271;77;21014;-65
2022/07/29 06:31:12;;;;;;;6.00;1.95;;;;;;;22.35;66.49;98393.66;1829964;77;21354;-66
2022/07/29 06:33:38;;;;;;;6.70;2.33;;;;;;;22.36;65.14;98396.59;1811635;77;20916;-63
2022/07/29 06:36:07;;;;;;;5.40;2.15;;;;;;;22.32;63.66;98394.36;1845345;77;21074;-69
2022/07/29 06:38:34;;;;;;;3.70;2.10;;;;;;;22.32;64.19;98403.91;1848816;77;20957;-64
2022/07/29 06:41:02;;;;;;;3.50;2.22;;;;;;;22.34;63.06;98402.98;1847891;77;21078;-62
2022/07/29 06:43:43;;;;;;;3.95;2.30;;;;;;;22.32;63.58;98401.19;1848898;77;21157;-64
2022/07/29 06:46:14;;;;;;;11.28;2.77;;;;;;;22.31;64.25;98402.32;1848836;77;21018;-66
2022/07/29 06:48:44;;;;;;;7.12;2.40;;;;;;;22.26;64.03;98402.59;1835240;77;21023;-63
2022/07/29 06:51:11;;;;;;;5.03;2.33;;;;;;;22.21;65.03;98396.84;1824069;77;20879;-64
2022/07/29 06:53:40;;;;;;;6.10;2.50;;;;;;;22.17;65.99;98396.55;1838837;77;20958;-67
2022/07/29 06:56:12;;;;;;;5.35;2.42;;;;;;;22.14;66.97;98398.65;1827736;77;21094;-63
2022/07/29 06:58:39;;;;;;;8.43;2.40;;;;;;;22.10;67.74;98399.92;1808993;79;20963;-62
2022/07/29 07:01:07;;;;;;;5.35;2.08;;;;;;;22.02;68.75;98401.48;1808972;79;21491;-66
2022/07/29 07:08:40;;;;;;;5.10;2.77;;;;;;;21.97;70.09;98401.19;1848615;77;21836;-69
2022/07/29 07:11:07;;;;;;;4.90;2.98;;;;;;;21.92;70.76;98410.20;1830091;77;20963;-65
2022/07/29 07:13:36;;;;;;;4.75;2.85;;;;;;;21.85;71.53;98410.04;1840817;77;20920;-66
2022/07/29 07:16:05;;;;;;;6.47;2.75;;;;;;;21.76;72.06;98412.33;1845148;77;20899;-67
2022/07/29 07:18:33;;;;;;;6.60;2.80;;;;;;;21.73;72.84;98404.88;1836462;77;20912;-68
2022/07/29 07:21:00;;;;;;;5.28;2.83;;;;;;;21.71;73.08;98405.81;1825670;77;21669;-69
2022/07/29 07:23:27;;;;;;;5.83;3.05;;;;;;;21.71;73.35;98406.38;1841470;77;20963;-67
2022/07/29 07:25:54;;;;;;;6.28;3.00;;;;;;;21.70;73.74;98403.42;1836759;77;21490;-67
2022/07/29 07:28:21;;;;;;;8.68;3.02;;;;;;;21.66;73.83;98408.80;1826736;77;21447;-67
2022/07/29 07:30:47;;;;;;;3.47;2.83;;;;;;;21.62;73.96;98397.59;1804969;79;20932;-65
2022/07/29 07:33:15;;;;;;;18.02;3.42;;;;;;;21.61;74.29;98400.88;1803259;79;21093;-64
2022/07/29 07:35:42;;;;;;;5.40;3.00;;;;;;;21.57;74.62;98401.37;1801858;79;21498;-65
2022/07/29 07:38:10;;;;;;;4.62;2.58;;;;;;;21.55;74.88;98398.78;1770494;79;20951;-69
2022/07/29 07:40:37;;;;;;;3.70;2.52;;;;;;;21.57;75.15;98395.92;1795059;79;21494;-61
2022/07/29 07:43:05;;;;;;;6.35;2.55;;;;;;;21.63;75.63;98395.86;1799004;79;21043;-65
2022/07/29 07:45:36;;;;;;;6.42;2.62;;;;;;;21.70;75.03;98397.40;1787852;79;21109;-62
2022/07/29 07:48:04;;;;;;;6.17;2.77;;;;;;;21.82;74.91;98404.69;1799256;79;21047;-66
2022/07/29 07:50:31;;;;;;;7.65;2.70;;;;;;;21.96;74.53;98406.98;1787094;79;20964;-63
2022/07/29 07:52:57;;;;;;;3.45;2.35;;;;;;;22.10;74.21;98400.48;1793431;79;20940;-64
2022/07/29 07:55:25;;;;;;;4.75;2.55;;;;;;;22.26;73.64;98406.12;1797368;79;21370;-65
2022/07/29 07:57:51;;;;;;;4.47;2.42;;;;;;;22.38;72.67;98396.45;1802537;79;21103;-65
2022/07/29 08:00:18;;;;;;;8.30;2.58;;;;;;;22.47;71.88;98401.69;1802778;79;20968;-66
2022/07/29 08:02:45;;;;;;;8.38;2.37;;;;;;;22.56;71.64;98398.77;1792183;79;20892;-66
2022/07/29 08:05:16;;;;;;;5.40;2.20;;;;;;;22.67;71.38;98407.42;1787519;79;21353;-65
2022/07/29 08:07:47;;;;;;;5.20;2.62;;;;;;;22.77;71.50;98410.16;1795121;79;21498;-64
2022/07/29 08:13:08;;;;;;;8.35;2.47;;;;;;;23.02;70.75;98416.88;1794208;79;20976;-65
2022/07/29 08:15:35;;;;;;;6.10;2.40;;;;;;;23.17;70.17;98419.31;1789287;79;20877;-63
2022/07/29 08:18:03;;;;;;;3.25;2.47;;;;;;;23.38;70.27;98410.16;1796412;79;21436;-64
2022/07/29 08:20:33;;;;;;;8.28;2.47;;;;;;;23.56;68.74;98414.78;1798016;79;20884;-63
2022/07/29 08:22:59;;;;;;;4.95;2.25;;;;;;;23.63;68.47;98414.10;1800658;79;21981;-64
2022/07/29 08:25:26;;;;;;;4.42;2.55;;;;;;;23.77;68.67;98414.34;1803263;79;21423;-63
2022/07/29 08:27:52;;;;;;;6.45;2.40;;;;;;;23.99;68.26;98416.27;1801929;79;20885;-64
2022/07/29 08:30:19;;;;;;;4.70;2.22;;;;;;;24.22;64.97;98414.86;1805271;79;21023;-63
2022/07/29 08:32:48;;;;;;;3.65;2.40;;;;;;;24.32;64.41;98417.77;1802620;79;21529;-63
2022/07/29 08:35:15;;;;;;;4.15;2.80;;;;;;;24.46;64.31;98423.43;1751641;80;21313;-66
2022/07/29 08:37:41;;;;;;;5.12;2.60;;;;;;;24.59;63.50;98421.83;1799981;79;20892;-63
2022/07/29 08:40:11;;;;;;;4.72;2.30;;;;;;;24.61;63.39;98422.25;1802183;79;20997;-65
2022/07/29 08:42:37;;;;;;;5.20;2.15;;;;;;;24.58;63.55;98421.61;1770002;80;20956;-64
2022/07/29 08:45:07;;;;;;;4.12;2.33;;;;;;;24.52;64.16;98417.63;1808575;79;20881;-62
2022/07/29 08:47:36;;;;;;;6.03;2.30;;;;;;;24.47;64.09;98422.25;1777003;80;21389;-63
2022/07/29 08:50:02;;;;;;;4.60;2.37;;;;;;;24.40;65.30;98424.13;1781238;79;21072;-65
2022/07/29 08:52:30;;;;;;;5.65;2.20;;;;;;;24.40;65.45;98423.52;1805585;79;21007;-65
2022/07/29 08:54:58;;;;;;;7.75;2.72;;;;;;;24.42;64.80;98420.44;1793636;79;21472;-63
2022/07/29 08:57:27;;;;;;;7.47;2.35;;;;;;;24.42;65.52;98417.70;1750911;79;21078;-63
2022/07/29 08:59:53;;;;;;;6.50;3.08;;;;;;;24.39;65.10;98421.96;1778412;79;21093;-62
2022/07/29 09:02:21;;;;;;;9.10;2.80;;;;;;;24.42;65.02;98421.20;1741189;79;21499;-62
2022/07/29 09:04:49;;;;;;;6.17;3.10;;;;;;;24.47;65.48;98426.36;1768718;79;21042;-66
2022/07/29 09:07:18;;;;;;;5.25;2.80;;;;;;;24.47;65.84;98426.36;1767790;79;21542;-64
2022/07/29 09:09:46;;;;;;;5.05;2.72;;;;;;;24.42;65.97;98429.41;1791765;79;21090;-65
2022/07/29 09:12:15;;;;;;;5.70;2.55;;;;;;;24.36;65.76;98426.80;1789150;78;21794;-63
2022/07/29 09:14:41;;;;;;;7.97;2.90;;;;;;;24.29;65.75;98424.54;1798714;79;21051;-64
2022/07/29 09:17:09;;;;;;;5.95;2.72;;;;;;;24.20;65.49;98428.92;1784994;79;21073;-64
2022/07/29 09:19:36;;;;;;;5.00;2.20;;;;;;;24.16;65.99;98428.09;1772931;79;21038;-64
2022/07/29 09:22:06;;;;;;;6.97;2.80;;;;;;;24.14;65.55;98428.24;1785743;80;21089;-66
2022/07/29 09:24:47;;;;;;;4.47;2.50;;;;;;;24.11;65.38;98428.97;1786311;79;21088;-67
2022/07/29 09:27:25;;;;;;;7.00;2.60;;;;;;;24.10;65.91;98427.38;1781943;79;20952;-65
2022/07/29 09:30:07;;;;;;;6.17;2.37;;;;;;;24.11;66.37;98417.45;1816535;77;21471;-65
2022/07/29 09:32:58;;;;;;;6.33;2.55;;;;;;;24.09;65.39;98415.67;1810554;77;20880;-65
2022/07/29 09:35:26;;;;;;;10.68;3.05;;;;;;;24.22;66.38;98414.86;1812420;77;21126;-66
2022/07/29 09:37:53;;;;;;;9.28;4.20;;;;;;;24.50;65.88;98415.25;1829541;77;21183;-66
2022/07/29 09:40:27;;;;;;;6.80;4.03;;;;;;;24.71;64.37;98411.98;1824230;77;21203;-66
2022/07/29 09:42:56;;;;;;;8.08;3.65;;;;;;;24.84;64.51;98409.25;1825495;77;21777;-66
2022/07/29 09:45:30;;;;;;;5.53;3.10;;;;;;;24.98;64.75;98409.42;1827514;77;21511;-66
2022/07/29 09:48:00;;;;;;;5.17;3.12;;;;;;;25.10;63.69;98409.95;1818611;77;21583;-63
2022/07/29 09:50:42;;;;;;;4.50;2.98;;;;;;;25.13;62.61;98414.66;1825230;77;22502;-67
2022/07/29 09:53:09;;;;;;;7.95;3.15;;;;;;;25.04;62.66;98418.87;1823600;77;21430;-63
2022/07/29 09:55:51;;;;;;;8.55;3.00;;;;;;;25.04;63.33;98420.23;1825276;77;20949;-67
2022/07/29 09:58:21;;;;;;;7.60;3.15;;;;;;;25.09;62.92;98404.83;1840330;77;21046;-65
2022/07/29 10:00:50;;;;;;;6.33;3.15;;;;;;;25.19;62.71;98415.13;1826387;77;21043;-63
2022/07/29 10:03:18;;;;;;;7.78;3.12;;;;;;;25.24;62.33;98412.62;1776626;79;20968;-65
2022/07/29 10:05:46;;;;;;;6.97;3.00;;;;;;;25.21;62.42;98409.26;1753132;80;21299;-61
2022/07/29 10:08:12;;;;;;;4.28;3.00;;;;;;;25.15;62.65;98410.20;1755494;79;21041;-66
2022/07/29 10:10:42;;;;;;;4.85;3.17;;;;;;;25.10;62.14;98407.80;1764081;79;21538;-65
2022/07/29 10:13:12;;;;;;;5.65;3.40;;;;;;;25.00;63.39;98407.88;1761888;80;21057;-66
2022/07/29 10:15:45;;;;;;;8.80;3.33;;;;;;;25.00;63.39;98407.88;1758441;79;20994;-64
2022/07/29 10:18:13;;;;;;;10.25;3.47;;;;;;;25.02;63.55;98403.39;1755389;80;20936;-65
2022/07/29 10:20:41;;;;;;;5.05;3.25;;;;;;;25.07;62.90;98400.31;1758224;79;21704;-65
2022/07/29 10:23:09;;;;;;;3.65;3.00;;;;;;;25.13;62.84;98397.45;1757188;79;21128;-65
2022/07/29 10:25:37;;;;;;;7.70;3.08;;;;;;;25.21;62.86;98403.20;1767578;79;21189;-67
2022/07/29 10:28:05;;;;;;;5.42;3.30;;;;;;;25.32;63.73;98397.23;1774016;80;21708;-67
2022/07/29 10:30:32;;;;;;;5.42;3.30;;;;;;;25.46;62.69;98389.17;1773773;79;20975;-66
2022/07/29 10:33:33;;;;;;;7.45;3.45;;;;;;;25.54;61.67;98385.34;1773057;80;21037;-64
2022/07/29 10:36:33;;;;;;;7.95;3.10;;;;;;;25.55;61.75;98380.06;1771838;79;21490;-64
2022/07/29 10:39:30;;;;;;;5.37;2.40;;;;;;;25.61;61.16;98383.23;1754338;80;21006;-67
2022/07/29 10:42:25;;;;;;;3.08;2.08;;;;;;;25.60;62.02;98389.29;1754668;80;21252;-63
2022/07/29 10:44:52;;;;;;;8.37;2.50;;;;;;;25.68;61.01;98386.83;1763316;80;21520;-65
2022/07/29 10:47:22;;;;;;;4.37;2.35;;;;;;;25.72;60.50;98375.28;1759784;80;21425;-63
2022/07/29 10:50:00;;;;;;;6.85;2.42;;;;;;;25.72;60.68;98376.66;1761506;79;21084;-62
2022/07/29 10:52:54;;;;;;;4.83;2.27;;;;;;;25.73;60.63;98380.98;1758772;79;21533;-64
2022/07/29 10:55:34;;;;;;;6.15;2.65;;;;;;;25.76;60.25;98377.50;1758006;79;21108;-66
2022/07/29 10:58:26;;;;;;;4.65;2.52;;;;;;;25.85;59.45;98384.02;1746303;80;21103;-62
2022/07/29 11:00:55;;;;;;;2.80;2.08;;;;;;;25.96;58.37;98381.33;1765263;80;21474;-61
2022/07/29 11:03:47;;;;;;;6.53;2.20;;;;;;;25.96;58.37;98381.33;1749018;81;21070;-66
2022/07/29 11:06:14;;;;;;;4.00;2.20;;;;;;;26.00;58.81;98387.65;1764027;81;21118;-64
2022/07/29 11:08:41;;;;;;;2.65;1.85;;;;;;;25.98;58.17;98384.50;1753538;81;21769;-67
2022/07/29 11:11:33;;;;;;;4.90;2.15;;;;;;;25.91;58.46;98374.25;1750616;81;21443;-64
2022/07/29 11:14:02;;;;;;;5.00;2.45;;;;;;;25.91;58.46;98374.25;1747401;80;21017;-67
2022/07/29 11:16:52;;;;;;;3.35;2.02;;;;;;;25.93;58.70;98362.91;1765470;80;21405;-64
2022/07/29 11:19:20;;;;;;;5.37;2.52;;;;;;;26.01;58.64;98359.02;1763754;80;21081;-65
2022/07/29 11:21:51;;;;;;;7.62;2.40;;;;;;;26.01;58.64;98359.02;1760040;80;21052;-65
2022/07/29 11:24:34;;;;;;;7.92;2.45;;;;;;;25.97;57.78;98365.08;1756468;79;20982;-64
2022/07/29 11:27:14;;;;;;;4.87;2.10;;;;;;;25.97;57.78;98365.08;1749419;80;21479;-65
2022/07/29 11:29:55;;;;;;;3.87;2.40;;;;;;;25.97;59.40;98358.22;1763059;80;20940;-64
2022/07/29 11:32:30;;;;;;;3.02;2.20;;;;;;;26.13;58.77;98358.73;1761074;80;20997;-63
2022/07/29 11:35:21;;;;;;;4.65;2.50;;;;;;;26.23;56.72;98358.02;1751312;79;22107;-66
2022/07/29 11:38:16;;;;;;;4.65;2.20;;;;;;;26.18;57.53;98356.42;1763547;80;21055;-65
2022/07/29 11:41:02;;;;;;;8.33;2.75;;;;;;;26.25;57.54;98347.44;1747124;80;20914;-66
2022/07/29 11:43:58;;;;;;;4.75;2.45;;;;;;;26.57;58.40;98346.98;1724866;80;21132;-68
2022/07/29 11:46:51;;;;;;;4.75;2.17;;;;;;;26.93;57.72;98352.83;1745110;81;21379;-66
2022/07/29 11:49:22;;;;;;;6.22;2.20;;;;;;;27.18;55.28;98348.73;1749748;81;21032;-62
2022/07/29 11:51:53;;;;;;;4.25;2.27;;;;;;;27.37;54.57;98333.84;1757247;81;20981;-65
2022/07/29 11:54:33;;;;;;;5.62;2.47;;;;;;;27.47;54.77;98338.58;1756845;80;20993;-64
2022/07/29 11:57:00;;;;;;;8.68;2.30;;;;;;;27.66;53.35;98336.80;1771635;80;21507;-66
2022/07/29 11:59:32;;;;;;;4.67;2.42;;;;;;;27.80;52.88;98327.95;1767591;80;21139;-66